ADDS TAF Board (Experimental) INFO Settings
IDs: Format: Expanded Condensed

KSAN - San Diego Intl Arpt, CA, US

Issued at 1720 UTC 30 Jul 2016
Updated at 2038 UTC 30 Jul 2016
Time1951Z 30/21Z 30/22Z 30/23Z 31/00Z 31/01Z 31/02Z 31/03Z 31/04Z 31/05Z 31/06Z 31/07Z 31/08Z 31/09Z
Type OBS PRVL PRVL PRVL PRVL PRVL PRVL PRVL PRVL PRVL PRVL PRVL PRVL PRVL
VIS 10 >6 >6 >6 >6 >6 >6 >6 >6 >6 >6 >6 >6 >6
CIG -- -- -- -- -- -- -- -- -- -- -- -- -- --
Cover SCT SCT SCT SCT SCT SCT SCT SCT SCT SCT SCT SCT SCT SCT
FltCat VFR VFR VFR VFR VFR VFR VFR VFR VFR VFR VFR VFR VFR VFR
WX -- -- -- -- -- -- -- -- -- -- -- -- -- --
WDir 220 210 210 210 210 210 VRB VRB VRB VRB VRB VRB VRB VRB
WSpd 8 10 10 10 10 10 4 4 4 4 4 4 4 4
WGst -- -- -- -- -- -- -- -- -- -- -- -- -- --
R09/27
XWnd -7 -10 -10 -10 -10 -10 VRB VRB VRB VRB VRB VRB VRB VRB
HWnd -3 -2 -2 -2 -2 -2 VRB VRB VRB VRB VRB VRB VRB VRB

Raw TAF
KSAN 301720Z 3018/3124 21010KT P6SM SCT012 SCT200
  FM310200 VRB04KT P6SM FEW015 SCT200
  FM311000 VRB03KT P6SM BKN013
  FM311600 22005KT P6SM FEW015
  FM311900 24010KT P6SM SCT200


Raw METAR
KSAN 301951Z 22008KT 10SM SCT017 SCT200 23/18 A2989 RMK AO2 SLP122 T02280178
KSAN 301851Z 21006KT 10SM SCT017 22/18 A2990 RMK AO2 SLP125 T02220178
KSAN 301751Z 19007KT 10SM SCT013 SCT200 22/18 A2991 RMK AO2 SLP127 T02220178 10222 20194 51003

METAR Board
Radar Display
Forecast Discussion

TAF Board Legend

Potential Impact
Threat None Slight Moderate High
Visibility (sm) ≥5.1 5.1>X≥3 3>X≥1 <1
Ceiling (100 ft) ≥30.1 30.1>X≥10 10>X≥5 <5
Wind Speed (kt) <10 10≤X<20 20≤X<30 ≥30
Wind Gust (kt) <15 15≤X<25 25≤X<35 ≥35
Weather No Wx Reported VCTS,-TS,-FZRA,SN TS,FZRA +TS,+FZRA,+SN